Time;durP1;ratioP1;P1;durP2;ratioP2;P2;SDS_P1;SDS_P2;PMS_P1;PMS_P2;Temp;Humidity;BMP_temperature;BMP_pressure;BME280_temperature;BME280_humidity;BME280_pressure;Samples;Min_cycle;Max_cycle;Signal;HPM_P1;HPM_P2
2023/05/22 00:02:03;;;;;;;;;;;;;;;16.94;75.89;97882.81;7369691;19;19991;-76
2023/05/22 00:04:30;;;;;;;;;;;;;;;16.89;76.19;97886.09;7372845;19;21003;-77
2023/05/22 00:06:57;;;;;;;;;;;;;;;16.78;76.20;97890.22;7368827;19;19929;-77
2023/05/22 00:09:24;;;;;;;;;;;;;;;16.70;76.55;97882.38;7375626;19;21210;-76
2023/05/22 00:11:51;;;;;;;;;;;;;;;16.72;76.80;97883.00;7373452;19;20311;-76
2023/05/22 00:14:18;;;;;;;;;;;;;;;16.71;76.96;97885.88;7372734;19;20368;-76
2023/05/22 00:16:47;;;;;;;;;;;;;;;16.66;76.89;97887.31;7375126;19;20568;-77
2023/05/22 00:19:15;;;;;;;;;;;;;;;16.70;77.00;97884.25;7370066;19;20008;-76
2023/05/22 00:21:42;;;;;;;;;;;;;;;16.70;76.82;97876.22;7367699;19;19922;-74
2023/05/22 00:24:09;;;;;;;;;;;;;;;16.69;76.60;97875.38;7372853;19;19922;-77
2023/05/22 00:26:36;;;;;;;;;;;;;;;16.67;76.63;97872.13;7375747;19;20636;-76
2023/05/22 00:29:04;;;;;;;;;;;;;;;16.63;76.64;97866.34;7369846;19;19915;-77
2023/05/22 00:31:31;;;;;;;;;;;;;;;16.53;77.13;97871.28;7371922;19;19957;-77
2023/05/22 00:33:58;;;;;;;;;;;;;;;16.55;77.07;97879.94;7367677;19;19951;-77
2023/05/22 00:36:25;;;;;;;;;;;;;;;16.51;77.18;97881.38;7367324;19;20327;-76
2023/05/22 00:38:52;;;;;;;;;;;;;;;16.51;77.03;97877.88;7375245;19;19933;-76
2023/05/22 00:41:18;;;;;;;;;;;;;;;16.53;76.78;97876.63;7369263;19;20344;-76
2023/05/22 00:43:46;;;;;;;;;;;;;;;16.50;76.97;97873.56;7373578;19;19931;-76
2023/05/22 00:46:13;;;;;;;;;;;;;;;16.49;76.93;97872.75;7366499;19;19929;-76
2023/05/22 00:48:40;;;;;;;;;;;;;;;16.48;77.07;97865.75;7376063;19;19939;-77
2023/05/22 00:51:07;;;;;;;;;;;;;;;16.41;77.37;97865.75;7366497;19;19918;-76
2023/05/22 00:53:34;;;;;;;;;;;;;;;16.41;77.45;97881.78;7374596;19;19923;-76
2023/05/22 00:56:02;;;;;;;;;;;;;;;16.40;77.21;97868.63;7371694;19;20333;-77
2023/05/22 00:58:29;;;;;;;;;;;;;;;16.39;77.35;97861.66;7379981;19;19923;-75
2023/05/22 01:00:56;;;;;;;;;;;;;;;16.29;77.65;97869.25;7379967;19;19947;-75
2023/05/22 01:03:24;;;;;;;;;;;;;;;16.31;77.53;97870.69;7379011;19;19947;-77
2023/05/22 01:05:53;;;;;;;;;;;;;;;16.31;77.34;97867.19;7378344;19;19919;-76
2023/05/22 01:08:20;;;;;;;;;;;;;;;16.28;77.44;97876.44;7375489;19;19928;-76
2023/05/22 01:10:46;;;;;;;;;;;;;;;16.10;78.02;97879.69;7377283;19;19935;-77
2023/05/22 01:13:22;;;;;;;;;;;;;;;15.95;78.62;97871.84;7375059;19;19926;-77
2023/05/22 01:16:07;;;;;;;;;;;;;;;15.87;79.05;97876.56;7378013;19;19919;-75
2023/05/22 01:18:36;;;;;;;;;;;;;;;15.85;79.42;97870.59;7379565;19;19926;-76
2023/05/22 01:21:05;;;;;;;;;;;;;;;15.89;78.89;97869.19;7373197;19;20634;-76
2023/05/22 01:23:41;;;;;;;;;;;;;;;15.91;78.81;97870.63;7378320;19;20649;-75
2023/05/22 01:26:20;;;;;;;;;;;;;;;15.94;78.94;97878.22;7369701;19;19921;-76
2023/05/22 01:28:56;;;;;;;;;;;;;;;15.91;78.95;97881.31;7380930;19;19925;-76
2023/05/22 01:31:23;;;;;;;;;;;;;;;15.84;79.21;97884.97;7376950;19;19945;-77
2023/05/22 01:33:50;;;;;;;;;;;;;;;15.83;79.18;97884.16;7379465;19;19915;-76
2023/05/22 01:36:19;;;;;;;;;;;;;;;15.85;79.26;97878.59;7370878;19;20893;-75
2023/05/22 01:38:45;;;;;;;;;;;;;;;15.89;79.20;97879.88;7379516;19;19986;-76
2023/05/22 01:41:12;;;;;;;;;;;;;;;15.91;78.86;97889.31;7374046;19;20378;-76
2023/05/22 01:43:40;;;;;;;;;;;;;;;15.89;78.72;97885.19;7373869;19;19919;-76
2023/05/22 01:46:06;;;;;;;;;;;;;;;15.87;78.78;97890.72;7370467;19;20348;-76
2023/05/22 01:48:34;;;;;;;;;;;;;;;15.91;78.92;97885.81;7379539;19;19919;-76
2023/05/22 01:51:06;;;;;;;;;;;;;;;15.87;78.94;97889.91;7375459;19;19970;-76
2023/05/22 01:53:50;;;;;;;;;;;;;;;15.86;79.11;97896.28;7377463;19;20267;-76
2023/05/22 01:56:29;;;;;;;;;;;;;;;15.74;79.28;97893.34;7378943;19;19914;-75
2023/05/22 01:59:01;;;;;;;;;;;;;;;15.73;79.60;97897.06;7377102;19;20392;-75
2023/05/22 02:01:27;;;;;;;;;;;;;;;15.68;79.82;97894.13;7375770;19;19922;-75
2023/05/22 02:03:55;;;;;;;;;;;;;;;15.63;79.96;97901.91;7375556;19;19948;-74
2023/05/22 02:06:24;;;;;;;;;;;;;;;15.58;79.96;97900.66;7372738;19;19923;-75
2023/05/22 02:08:51;;;;;;;;;;;;;;;15.62;79.58;97895.75;7381169;19;19974;-74
2023/05/22 02:11:17;;;;;;;;;;;;;;;15.49;79.89;97898.38;7374082;19;19914;-75
2023/05/22 02:13:47;;;;;;;;;;;;;;;15.39;80.34;97892.59;7375709;19;20497;-75
2023/05/22 02:16:14;;;;;;;;;;;;;;;15.33;80.42;97904.84;7366909;19;19919;-75
2023/05/22 02:18:41;;;;;;;;;;;;;;;15.37;80.63;97898.91;7375800;19;20564;-75
2023/05/22 02:21:08;;;;;;;;;;;;;;;15.36;80.58;97899.13;7371105;19;19976;-74
2023/05/22 02:23:36;;;;;;;;;;;;;;;15.23;80.76;97905.22;7382820;19;19919;-75
2023/05/22 02:26:03;;;;;;;;;;;;;;;15.25;80.91;97897.84;7377672;19;19943;-75
2023/05/22 02:28:30;;;;;;;;;;;;;;;15.30;80.31;97900.75;7378896;19;20432;-75
2023/05/22 02:30:57;;;;;;;;;;;;;;;15.29;80.07;97888.41;7373474;19;19915;-75
2023/05/22 02:33:25;;;;;;;;;;;;;;;15.31;79.86;97898.91;7367560;19;19915;-75
2023/05/22 02:35:52;;;;;;;;;;;;;;;15.32;79.72;97896.06;7375898;19;19936;-74
2023/05/22 02:38:19;;;;;;;;;;;;;;;15.32;79.89;97893.38;7371192;19;20274;-76
2023/05/22 02:40:45;;;;;;;;;;;;;;;15.33;79.58;97897.69;7378461;19;19929;-76
2023/05/22 02:43:13;;;;;;;;;;;;;;;15.31;79.65;97896.22;7373800;19;19925;-76
2023/05/22 02:45:40;;;;;;;;;;;;;;;15.29;79.84;97898.28;7374758;19;19915;-75
2023/05/22 02:48:07;;;;;;;;;;;;;;;15.33;79.97;97892.34;7370722;19;19914;-75
2023/05/22 02:50:33;;;;;;;;;;;;;;;15.33;79.74;97895.03;7371961;19;20278;-76
2023/05/22 02:53:00;;;;;;;;;;;;;;;15.34;79.79;97896.66;7372608;19;19934;-75
2023/05/22 02:55:27;;;;;;;;;;;;;;;15.34;79.88;97896.66;7372340;19;19918;-75
2023/05/22 02:57:53;;;;;;;;;;;;;;;15.35;79.94;97892.97;7378189;19;19926;-74
2023/05/22 03:00:21;;;;;;;;;;;;;;;15.34;79.82;97893.97;7373323;19;19922;-74
2023/05/22 03:02:48;;;;;;;;;;;;;;;15.39;79.90;97892.59;7375139;19;19919;-75
2023/05/22 03:05:16;;;;;;;;;;;;;;;15.42;80.28;97890.34;7370324;19;19974;-74
2023/05/22 03:07:43;;;;;;;;;;;;;;;15.44;80.49;97892.81;7370876;19;19922;-74
2023/05/22 03:10:13;;;;;;;;;;;;;;;15.44;80.67;97884.81;7374606;19;19918;-75
2023/05/22 03:12:40;;;;;;;;;;;;;;;15.41;80.31;97895.88;7373743;19;19919;-75
2023/05/22 03:15:07;;;;;;;;;;;;;;;15.39;80.43;97889.91;7368863;19;20537;-75
2023/05/22 03:17:35;;;;;;;;;;;;;;;15.40;80.47;97895.03;7377324;19;19918;-75
2023/05/22 03:20:04;;;;;;;;;;;;;;;15.42;80.48;97905.50;7377790;19;19930;-75
2023/05/22 03:22:31;;;;;;;;;;;;;;;15.47;80.28;97906.56;7362686;19;20764;-75
2023/05/22 03:24:58;;;;;;;;;;;;;;;15.48;80.27;97908.22;7370174;19;19994;-75
2023/05/22 03:27:24;;;;;;;;;;;;;;;15.44;79.97;97914.13;7370646;19;19978;-75
2023/05/22 03:29:51;;;;;;;;;;;;;;;15.45;80.14;97918.44;7375668;19;19919;-75
2023/05/22 03:32:19;;;;;;;;;;;;;;;15.35;79.94;97916.16;7365508;19;20862;-75
2023/05/22 03:34:46;;;;;;;;;;;;;;;15.20;80.50;97918.94;7378295;19;19943;-75
2023/05/22 03:37:13;;;;;;;;;;;;;;;15.10;80.58;97923.78;7368886;19;19981;-74
2023/05/22 03:39:40;;;;;;;;;;;;;;;15.10;80.95;97921.13;7375176;19;20060;-75
2023/05/22 03:42:23;;;;;;;;;;;;;;;15.15;80.63;97922.19;7366488;19;19918;-76
2023/05/22 03:44:50;;;;;;;;;;;;;;;15.17;80.46;97927.31;7372949;19;19922;-76
2023/05/22 03:47:17;;;;;;;;;;;;;;;15.18;80.12;97923.63;7368020;19;19915;-77
2023/05/22 03:49:45;;;;;;;;;;;;;;;15.17;80.18;97922.00;7377959;19;19918;-75
2023/05/22 03:52:11;;;;;;;;;;;;;;;15.19;80.18;97927.94;7365814;19;20344;-76
2023/05/22 03:54:39;;;;;;;;;;;;;;;15.19;80.82;97927.09;7374075;19;19918;-75
2023/05/22 03:57:05;;;;;;;;;;;;;;;15.17;81.03;97930.00;7368069;19;19923;-76
2023/05/22 03:59:34;;;;;;;;;;;;;;;15.13;81.39;97931.38;7372949;19;19919;-75
2023/05/22 04:02:01;;;;;;;;;;;;;;;15.11;81.36;97931.59;7374494;19;19922;-75
2023/05/22 04:04:28;;;;;;;;;;;;;;;15.07;81.24;97926.84;7371909;19;19947;-76
2023/05/22 04:06:56;;;;;;;;;;;;;;;15.04;81.23;97932.56;7372676;19;19935;-75
2023/05/22 04:09:31;;;;;;;;;;;;;;;15.01;81.49;97930.28;7369620;19;19918;-75
2023/05/22 04:11:57;;;;;;;;;;;;;;;15.15;81.75;97940.00;7372294;19;19921;-76
2023/05/22 04:14:25;;;;;;;;;;;;;;;15.24;81.55;97938.00;7364976;19;20688;-76
2023/05/22 04:16:51;;;;;;;;;;;;;;;15.28;81.19;97937.44;7367338;19;19935;-75
2023/05/22 04:19:18;;;;;;;;;;;;;;;15.26;81.59;97934.13;7367338;19;19945;-76
2023/05/22 04:21:46;;;;;;;;;;;;;;;15.35;81.46;97937.47;7370188;19;19956;-75
2023/05/22 04:24:13;;;;;;;;;;;;;;;15.45;81.18;97934.44;7369589;19;19931;-76
2023/05/22 04:26:40;;;;;;;;;;;;;;;15.46;81.15;97931.59;7374763;19;19930;-76
2023/05/22 04:29:13;;;;;;;;;;;;;;;15.44;81.21;97930.94;7367452;19;19915;-75
2023/05/22 04:31:40;;;;;;;;;;;;;;;15.47;81.07;97935.06;7369376;19;19923;-76
2023/05/22 04:34:13;;;;;;;;;;;;;;;15.52;81.13;97929.97;7367289;19;20443;-76
2023/05/22 04:36:43;;;;;;;;;;;;;;;15.55;80.74;97945.56;7367750;19;20573;-75
2023/05/22 04:39:10;;;;;;;;;;;;;;;15.51;80.86;97941.66;7374649;19;19937;-74
2023/05/22 04:41:37;;;;;;;;;;;;;;;15.53;81.02;97950.25;7372885;19;19918;-75
2023/05/22 04:44:07;;;;;;;;;;;;;;;15.53;80.79;97944.94;7371023;19;19943;-75
2023/05/22 04:46:34;;;;;;;;;;;;;;;15.55;80.63;97941.03;7369201;19;19915;-75
2023/05/22 04:49:02;;;;;;;;;;;;;;;15.52;80.78;97949.44;7368176;19;19939;-76
2023/05/22 04:51:30;;;;;;;;;;;;;;;15.50;80.72;97954.13;7366640;19;19923;-76
2023/05/22 04:53:57;;;;;;;;;;;;;;;15.43;80.89;97955.97;7374251;19;19907;-75
2023/05/22 04:56:24;;;;;;;;;;;;;;;15.36;81.66;97960.44;7365376;19;19930;-74
2023/05/22 04:59:04;;;;;;;;;;;;;;;15.29;81.63;97963.03;7371000;19;19922;-75
2023/05/22 05:01:33;;;;;;;;;;;;;;;15.30;81.49;97956.72;7364848;19;19926;-76
2023/05/22 05:04:01;;;;;;;;;;;;;;;15.32;81.88;97961.84;7368746;19;19926;-76
2023/05/22 05:06:28;;;;;;;;;;;;;;;15.28;81.53;97953.41;7363712;19;19967;-75
2023/05/22 05:08:55;;;;;;;;;;;;;;;15.26;81.53;97955.44;7370251;19;19915;-75
2023/05/22 05:11:21;;;;;;;;;;;;;;;15.26;81.59;97952.78;7354791;19;19932;-75
2023/05/22 05:13:48;;;;;;;;;;;;;;;15.29;81.49;97949.72;7370640;19;19922;-75
2023/05/22 05:16:15;;;;;;;;;;;;;;;15.36;81.66;97955.91;7363465;19;19987;-76
2023/05/22 05:18:42;;;;;;;;;;;;;;;15.39;81.62;97946.72;7368184;19;19949;-75
2023/05/22 05:21:09;;;;;;;;;;;;;;;15.45;82.08;97955.75;7367810;19;19923;-76
2023/05/22 05:23:37;;;;;;;;;;;;;;;15.51;82.04;97960.31;7361738;19;19948;-76
2023/05/22 05:26:06;;;;;;;;;;;;;;;15.54;81.83;97959.91;7373026;19;19963;-76
2023/05/22 05:28:32;;;;;;;;;;;;;;;15.59;81.73;97957.50;7363338;19;20526;-76
2023/05/22 05:31:00;;;;;;;;;;;;;;;15.63;82.60;97953.38;7370573;19;20239;-77
2023/05/22 05:33:47;;;;;;;;;;;;;;;15.70;82.71;97953.47;7370543;19;20415;-76
2023/05/22 05:36:45;;;;;;;;;;;;;;;15.78;82.83;97955.94;7364232;19;20763;-77
2023/05/22 05:39:12;;;;;;;;;;;;;;;15.82;82.87;97961.69;7370843;19;19935;-77
2023/05/22 05:41:38;;;;;;;;;;;;;;;15.86;82.37;97962.97;7372167;19;19978;-75
2023/05/22 05:44:07;;;;;;;;;;;;;;;15.93;82.38;97953.97;7378238;19;20364;-76
2023/05/22 05:46:34;;;;;;;;;;;;;;;15.99;82.24;97955.81;7373572;19;19939;-76
2023/05/22 05:49:08;;;;;;;;;;;;;;;16.04;82.30;97955.22;7375922;19;19931;-77
2023/05/22 05:51:37;;;;;;;;;;;;;;;16.12;82.10;97952.38;7369102;19;19982;-76
2023/05/22 05:54:04;;;;;;;;;;;;;;;16.18;82.28;97962.22;7373260;19;20382;-77
2023/05/22 05:56:31;;;;;;;;;;;;;;;16.24;81.99;97961.44;7373290;19;19930;-77
2023/05/22 05:58:58;;;;;;;;;;;;;;;16.30;81.71;97958.97;7376476;19;20327;-76
2023/05/22 06:01:43;;;;;;;;;;;;;;;16.37;81.63;97959.81;7376985;19;19958;-77
2023/05/22 06:04:16;;;;;;;;;;;;;;;16.51;81.80;97965.97;7377080;19;19929;-76
2023/05/22 06:06:46;;;;;;;;;;;;;;;16.67;82.47;97966.41;7379269;19;19915;-76
2023/05/22 06:09:14;;;;;;;;;;;;;;;16.83;82.40;97965.22;7378175;19;19915;-77
2023/05/22 06:12:03;;;;;;;;;;;;;;;17.04;82.18;97963.38;7374260;19;20327;-77
2023/05/22 06:14:32;;;;;;;;;;;;;;;17.10;80.39;97965.22;7375099;19;19953;-77
2023/05/22 06:16:59;;;;;;;;;;;;;;;17.27;79.96;97970.94;7379146;19;19994;-77
2023/05/22 06:19:26;;;;;;;;;;;;;;;17.45;80.13;97967.59;7371926;19;19922;-76
2023/05/22 06:21:53;;;;;;;;;;;;;;;17.58;80.37;97961.41;7380990;19;19921;-76
2023/05/22 06:24:20;;;;;;;;;;;;;;;17.72;80.21;97977.22;7374537;19;20382;-76
2023/05/22 06:26:46;;;;;;;;;;;;;;;17.73;78.46;97980.69;7377815;19;19990;-77
2023/05/22 06:29:14;;;;;;;;;;;;;;;17.73;78.19;97976.16;7371799;19;19933;-77
2023/05/22 06:31:40;;;;;;;;;;;;;;;17.66;78.61;97970.00;7371012;19;19922;-76
2023/05/22 06:34:07;;;;;;;;;;;;;;;17.65;78.58;97964.88;7374653;19;19978;-77
2023/05/22 06:36:34;;;;;;;;;;;;;;;17.63;79.29;97964.28;7370780;19;20355;-77
2023/05/22 06:39:02;;;;;;;;;;;;;;;17.60;79.06;97967.38;7376738;19;20345;-76
2023/05/22 06:41:47;;;;;;;;;;;;;;;17.70;77.94;97960.53;7377120;19;19945;-77
2023/05/22 06:44:14;;;;;;;;;;;;;;;17.70;77.99;97963.22;7375146;19;20696;-77
2023/05/22 06:46:47;;;;;;;;;;;;;;;17.71;78.17;97961.34;7371784;19;20809;-76
2023/05/22 06:49:20;;;;;;;;;;;;;;;17.78;77.40;97965.66;7379322;19;20257;-77
2023/05/22 06:51:50;;;;;;;;;;;;;;;17.77;76.59;97958.66;7374378;19;19926;-78
2023/05/22 06:54:20;;;;;;;;;;;;;;;17.95;75.59;97963.34;7378065;19;19926;-76
2023/05/22 06:56:49;;;;;;;;;;;;;;;18.14;75.03;97955.41;7376788;19;19919;-78
2023/05/22 06:59:17;;;;;;;;;;;;;;;18.13;75.59;97964.50;7382156;19;19923;-78
2023/05/22 07:02:10;;;;;;;;;;;;;;;18.22;75.60;97968.59;7375142;19;19922;-76
2023/05/22 07:05:06;;;;;;;;;;;;;;;18.39;76.08;97963.53;7380288;19;20619;-79
2023/05/22 07:07:45;;;;;;;;;;;;;;;18.52;75.34;97963.44;7375997;19;19915;-78
2023/05/22 07:10:12;;;;;;;;;;;;;;;18.56;75.23;97971.84;7382589;19;19919;-77
2023/05/22 07:12:39;;;;;;;;;;;;;;;18.48;75.83;97969.44;7375435;19;20246;-77
2023/05/22 07:15:10;;;;;;;;;;;;;;;18.54;76.28;97971.28;7377347;19;19934;-78
2023/05/22 07:17:40;;;;;;;;;;;;;;;18.63;77.21;97976.13;7371552;19;19954;-78
2023/05/22 07:20:09;;;;;;;;;;;;;;;18.68;75.10;97975.47;7376985;19;19962;-78
2023/05/22 07:22:39;;;;;;;;;;;;;;;18.75;74.22;97976.28;7374470;19;20530;-77
2023/05/22 07:25:05;;;;;;;;;;;;;;;18.80;74.40;97978.28;7381673;19;19940;-76
2023/05/22 07:27:32;;;;;;;;;;;;;;;18.69;73.82;97974.44;7373304;19;19933;-78
2023/05/22 07:30:00;;;;;;;;;;;;;;;18.73;74.22;97972.97;7379814;19;19947;-78
2023/05/22 07:32:29;;;;;;;;;;;;;;;18.59;74.11;97980.28;7364563;19;19922;-77
2023/05/22 07:34:57;;;;;;;;;;;;;;;18.81;75.21;97982.63;7377276;19;19923;-78
2023/05/22 07:37:24;;;;;;;;;;;;;;;18.86;74.43;97972.09;7377125;19;19940;-78
2023/05/22 07:39:51;;;;;;;;;;;;;;;18.97;75.29;97971.38;7378883;19;19951;-79
2023/05/22 07:42:18;;;;;;;;;;;;;;;19.05;73.98;97970.25;7379393;19;20585;-79
2023/05/22 07:44:50;;;;;;;;;;;;;;;19.10;72.96;97967.75;7376917;19;19925;-77
2023/05/22 07:47:18;;;;;;;;;;;;;;;19.16;73.21;97974.09;7379691;19;19929;-79
2023/05/22 07:49:45;;;;;;;;;;;;;;;19.20;73.13;97972.63;7373849;19;19932;-78
2023/05/22 07:52:12;;;;;;;;;;;;;;;19.21;72.40;97971.56;7374371;19;19918;-77
2023/05/22 07:54:39;;;;;;;;;;;;;;;19.17;73.47;97973.03;7375733;19;19915;-78
2023/05/22 07:57:11;;;;;;;;;;;;;;;19.10;73.83;97975.78;7377893;19;20347;-78
2023/05/22 07:59:38;;;;;;;;;;;;;;;19.09;73.90;97984.88;7376463;19;19919;-78
2023/05/22 08:02:08;;;;;;;;;;;;;;;19.22;73.85;97976.72;7378271;19;19925;-78
2023/05/22 08:04:35;;;;;;;;;;;;;;;19.23;74.54;97981.03;7376372;19;19922;-77
2023/05/22 08:07:02;;;;;;;;;;;;;;;19.29;75.41;97982.00;7377859;19;19914;-78
2023/05/22 08:09:29;;;;;;;;;;;;;;;19.37;74.96;97970.97;7371721;19;20268;-79
2023/05/22 08:11:56;;;;;;;;;;;;;;;19.53;74.32;97969.59;7380431;19;20248;-80
2023/05/22 08:14:23;;;;;;;;;;;;;;;19.63;72.66;97977.94;7384058;19;19969;-79
2023/05/22 08:16:49;;;;;;;;;;;;;;;19.79;72.18;97973.03;7381528;19;20377;-79
2023/05/22 08:19:16;;;;;;;;;;;;;;;19.81;71.03;97977.16;7383168;19;19918;-78
2023/05/22 08:21:43;;;;;;;;;;;;;;;19.61;74.89;97977.31;7376496;19;20280;-78
2023/05/22 08:24:10;;;;;;;;;;;;;;;19.64;75.17;97976.06;7374157;19;19943;-80
2023/05/22 08:26:37;;;;;;;;;;;;;;;20.06;71.77;97971.66;7373407;19;20016;-80
2023/05/22 08:29:04;;;;;;;;;;;;;;;20.05;72.04;97975.41;7380535;19;19939;-78
2023/05/22 08:31:33;;;;;;;;;;;;;;;20.08;71.94;97971.44;7374188;19;19911;-79
2023/05/22 08:34:01;;;;;;;;;;;;;;;20.14;74.27;97973.22;7372895;19;19918;-79
2023/05/22 08:36:30;;;;;;;;;;;;;;;20.16;72.13;97973.81;7377204;19;21864;-80
2023/05/22 08:38:56;;;;;;;;;;;;;;;20.37;72.99;97967.94;7380058;19;19922;-79
2023/05/22 08:41:23;;;;;;;;;;;;;;;20.37;70.00;97973.31;7372758;19;19923;-78
2023/05/22 08:43:50;;;;;;;;;;;;;;;20.58;71.20;97963.94;7371535;19;19923;-81
2023/05/22 08:46:18;;;;;;;;;;;;;;;20.74;70.36;97962.44;7381392;19;19918;-80
2023/05/22 08:48:46;;;;;;;;;;;;;;;20.71;70.78;97964.78;7372260;19;21859;-78
2023/05/22 08:51:13;;;;;;;;;;;;;;;20.80;68.86;97958.00;7375633;19;19915;-79
2023/05/22 08:53:40;;;;;;;;;;;;;;;20.94;70.07;97961.31;7371264;19;19918;-78
2023/05/22 08:56:07;;;;;;;;;;;;;;;21.09;71.81;97958.16;7377700;19;19935;-78
2023/05/22 08:58:34;;;;;;;;;;;;;;;21.25;68.49;97952.09;7372761;19;19911;-80
2023/05/22 09:01:02;;;;;;;;;;;;;;;21.28;67.81;97959.69;7370874;19;19941;-80
2023/05/22 09:03:31;;;;;;;;;;;;;;;21.37;67.85;97960.97;7379408;19;20021;-78
2023/05/22 09:05:59;;;;;;;;;;;;;;;21.42;66.49;97963.78;7384657;19;19982;-79
2023/05/22 09:08:27;;;;;;;;;;;;;;;21.51;69.82;97956.16;7379054;19;19911;-79
2023/05/22 09:10:55;;;;;;;;;;;;;;;21.57;68.09;97957.94;7380747;19;19919;-80
2023/05/22 09:13:31;;;;;;;;;;;;;;;21.73;66.56;97961.75;7380503;19;19944;-79
2023/05/22 09:15:59;;;;;;;;;;;;;;;21.84;67.62;97960.09;7385179;19;19929;-80
2023/05/22 09:18:27;;;;;;;;;;;;;;;21.58;65.27;97964.13;7387795;19;19934;-80
2023/05/22 09:20:57;;;;;;;;;;;;;;;21.52;66.25;97967.78;7375877;19;19925;-78
2023/05/22 09:23:26;;;;;;;;;;;;;;;21.45;64.22;97955.25;7381724;19;20404;-78
2023/05/22 09:25:53;;;;;;;;;;;;;;;21.45;64.41;97960.63;7379739;19;20731;-77
2023/05/22 09:28:21;;;;;;;;;;;;;;;21.52;64.84;97965.91;7386929;19;19910;-80
2023/05/22 09:30:49;;;;;;;;;;;;;;;21.62;64.10;97966.13;7374591;19;19978;-78
2023/05/22 09:33:16;;;;;;;;;;;;;;;21.72;64.30;97965.50;7379353;19;19914;-78
2023/05/22 09:35:44;;;;;;;;;;;;;;;21.91;62.98;97958.09;7381704;19;19982;-79
2023/05/22 09:38:12;;;;;;;;;;;;;;;22.35;62.63;97963.78;7386101;19;19919;-78
2023/05/22 09:40:39;;;;;;;;;;;;;;;22.43;61.91;97954.50;7385533;19;19926;-76
2023/05/22 09:43:07;;;;;;;;;;;;;;;23.07;61.13;97948.88;7398690;19;19923;-80
2023/05/22 09:45:34;;;;;;;;;;;;;;;22.96;62.35;97946.00;7410099;19;19931;-79
2023/05/22 09:48:02;;;;;;;;;;;;;;;23.04;63.26;97938.53;7394630;19;19959;-80
2023/05/22 09:50:29;;;;;;;;;;;;;;;23.31;59.17;97949.47;7385396;19;19925;-80
2023/05/22 09:52:55;;;;;;;;;;;;;;;23.56;59.80;97933.59;7381969;19;19911;-77
2023/05/22 09:55:22;;;;;;;;;;;;;;;23.91;57.68;97947.84;7385154;19;19911;-80
2023/05/22 09:57:50;;;;;;;;;;;;;;;24.05;56.93;97938.28;7378256;19;20626;-76
2023/05/22 10:00:18;;;;;;;;;;;;;;;24.22;57.36;97949.00;7387438;19;19923;-78
2023/05/22 10:02:46;;;;;;;;;;;;;;;25.11;54.17;97939.50;7384352;19;19937;-79
2023/05/22 10:05:22;;;;;;;;;;;;;;;25.25;52.18;97937.19;7382049;19;19935;-79
2023/05/22 10:07:53;;;;;;;;;;;;;;;25.45;54.88;97942.72;7385462;19;20213;-80
2023/05/22 10:10:20;;;;;;;;;;;;;;;25.68;50.17;97938.78;7386734;19;19922;-81
2023/05/22 10:12:50;;;;;;;;;;;;;;;25.58;51.16;97953.09;7378488;19;20005;-80
2023/05/22 10:15:17;;;;;;;;;;;;;;;25.40;51.91;97943.50;7384952;19;19927;-80
2023/05/22 10:17:44;;;;;;;;;;;;;;;25.15;56.03;97938.78;7385523;19;19918;-80
2023/05/22 10:20:11;;;;;;;;;;;;;;;25.23;53.34;97933.97;7384802;19;19919;-76
2023/05/22 10:22:37;;;;;;;;;;;;;;;25.30;54.14;97932.63;7375561;19;19915;-79
2023/05/22 10:25:05;;;;;;;;;;;;;;;25.29;54.96;97938.31;7386335;19;20369;-79
2023/05/22 10:27:34;;;;;;;;;;;;;;;25.39;55.13;97927.53;7383938;19;19922;-80
2023/05/22 10:30:05;;;;;;;;;;;;;;;25.20;51.03;97929.88;7386244;19;19934;-80
2023/05/22 10:32:39;;;;;;;;;;;;;;;24.74;52.41;97929.50;7373215;19;20272;-78
2023/05/22 10:35:06;;;;;;;;;;;;;;;24.83;52.89;97927.97;7381848;19;20331;-78
2023/05/22 10:37:41;;;;;;;;;;;;;;;24.83;52.84;97930.69;7380213;19;19918;-79
2023/05/22 10:40:08;;;;;;;;;;;;;;;24.70;53.50;97928.41;7380840;19;20254;-79
2023/05/22 10:42:36;;;;;;;;;;;;;;;25.01;56.37;97928.63;7383395;19;19990;-79
2023/05/22 10:45:05;;;;;;;;;;;;;;;25.18;54.04;97923.91;7382985;19;19932;-80
2023/05/22 10:47:32;;;;;;;;;;;;;;;24.90;55.06;97925.84;7379302;19;19925;-76
2023/05/22 10:50:02;;;;;;;;;;;;;;;24.98;56.48;97921.84;7378530;19;19925;-80
2023/05/22 10:52:29;;;;;;;;;;;;;;;24.98;58.68;97919.13;7375234;19;19937;-79
2023/05/22 10:54:57;;;;;;;;;;;;;;;24.94;55.45;97913.44;7378238;19;19936;-76
2023/05/22 10:57:23;;;;;;;;;;;;;;;24.49;55.02;97912.00;7381749;19;19915;-79
2023/05/22 10:59:50;;;;;;;;;;;;;;;24.51;55.94;97909.84;7375386;19;19925;-77
2023/05/22 11:02:27;;;;;;;;;;;;;;;24.80;53.16;97904.09;7379178;19;19935;-80
2023/05/22 11:05:17;;;;;;;;;;;;;;;24.89;56.18;97902.56;7373132;19;19922;-77
2023/05/22 11:07:44;;;;;;;;;;;;;;;25.12;53.05;97898.66;7378573;19;19922;-80
2023/05/22 11:10:11;;;;;;;;;;;;;;;24.94;52.41;97905.31;7381946;19;20333;-79
2023/05/22 11:12:37;;;;;;;;;;;;;;;24.84;53.92;97902.53;7376710;19;19922;-79
2023/05/22 11:15:05;;;;;;;;;;;;;;;24.80;53.18;97897.88;7380823;19;20645;-77
2023/05/22 11:17:43;;;;;;;;;;;;;;;24.79;53.89;97893.56;7384220;19;19933;-78
2023/05/22 11:20:23;;;;;;;;;;;;;;;24.82;54.78;97893.84;7383621;19;19914;-78
2023/05/22 11:22:57;;;;;;;;;;;;;;;24.70;54.42;97885.94;7371551;19;19922;-78
2023/05/22 11:25:24;;;;;;;;;;;;;;;24.60;55.54;97888.56;7381006;19;19929;-81
2023/05/22 11:27:51;;;;;;;;;;;;;;;24.50;55.14;97886.56;7375913;19;19918;-79
2023/05/22 11:30:18;;;;;;;;;;;;;;;24.79;56.17;97888.16;7381420;19;19918;-78
2023/05/22 11:32:45;;;;;;;;;;;;;;;25.03;57.26;97886.69;7374998;19;19922;-79
2023/05/22 11:35:15;;;;;;;;;;;;;;;25.27;53.11;97876.28;7379563;19;19930;-78
2023/05/22 11:37:42;;;;;;;;;;;;;;;25.57;53.95;97878.34;7377417;19;19942;-80
2023/05/22 11:40:09;;;;;;;;;;;;;;;26.04;54.03;97877.44;7385556;19;20371;-79
2023/05/22 11:42:36;;;;;;;;;;;;;;;25.71;51.25;97872.44;7380442;19;19915;-78
2023/05/22 11:45:04;;;;;;;;;;;;;;;25.77;52.83;97874.88;7376652;19;19915;-78
2023/05/22 11:47:31;;;;;;;;;;;;;;;25.68;51.83;97868.34;7383890;19;20533;-77
2023/05/22 11:49:58;;;;;;;;;;;;;;;25.74;51.63;97864.56;7379682;19;19923;-80
2023/05/22 11:52:28;;;;;;;;;;;;;;;25.71;51.17;97862.41;7380921;19;21203;-79
2023/05/22 11:54:55;;;;;;;;;;;;;;;25.99;50.82;97865.75;7380617;19;19927;-80
2023/05/22 11:57:21;;;;;;;;;;;;;;;26.04;53.80;97860.31;7382756;19;19934;-79
2023/05/22 11:59:48;;;;;;;;;;;;;;;26.06;52.83;97861.69;7375391;19;19998;-77
2023/05/22 12:02:15;;;;;;;;;;;;;;;25.93;54.28;97859.50;7373768;19;19915;-78
2023/05/22 12:04:42;;;;;;;;;;;;;;;25.66;50.93;97858.88;7377289;19;19944;-79
2023/05/22 12:07:08;;;;;;;;;;;;;;;25.83;52.03;97856.75;7379048;19;19926;-78
2023/05/22 12:09:39;;;;;;;;;;;;;;;26.08;53.46;97856.00;7376320;19;19947;-80
2023/05/22 12:12:16;;;;;;;;;;;;;;;26.64;53.45;97847.91;7375400;19;20748;-79
2023/05/22 12:14:44;;;;;;;;;;;;;;;26.99;48.90;97839.97;7377550;19;20030;-80
2023/05/22 12:17:17;;;;;;;;;;;;;;;27.26;47.14;97843.19;7376814;19;19973;-79
2023/05/22 12:19:47;;;;;;;;;;;;;;;27.02;48.65;97844.88;7371781;19;19922;-80
2023/05/22 12:22:14;;;;;;;;;;;;;;;26.83;49.07;97839.19;7370191;19;19933;-79
2023/05/22 12:24:41;;;;;;;;;;;;;;;26.80;48.60;97832.41;7378840;19;20655;-77
2023/05/22 12:27:11;;;;;;;;;;;;;;;26.64;51.26;97830.81;7373784;19;19925;-78
2023/05/22 12:29:38;;;;;;;;;;;;;;;26.73;49.43;97836.53;7377092;19;19925;-80
2023/05/22 12:32:11;;;;;;;;;;;;;;;26.82;50.32;97821.31;7369055;19;19944;-76
2023/05/22 12:34:41;;;;;;;;;;;;;;;26.68;48.04;97826.50;7375112;19;19945;-79
2023/05/22 12:37:26;;;;;;;;;;;;;;;26.84;49.90;97824.56;7375483;19;19975;-80
2023/05/22 12:39:57;;;;;;;;;;;;;;;26.36;47.95;97826.75;7373038;19;19923;-76
2023/05/22 12:42:24;;;;;;;;;;;;;;;26.39;50.32;97816.16;7370392;19;19930;-78
2023/05/22 12:44:54;;;;;;;;;;;;;;;26.11;48.52;97822.94;7373097;19;19925;-78
2023/05/22 12:47:22;;;;;;;;;;;;;;;26.13;50.33;97826.19;7375029;19;19925;-78
2023/05/22 12:49:49;;;;;;;;;;;;;;;26.24;48.49;97832.44;7371444;19;19919;-79
2023/05/22 12:52:19;;;;;;;;;;;;;;;26.41;48.45;97843.84;7369973;19;19974;-79
2023/05/22 12:54:45;;;;;;;;;;;;;;;26.92;44.62;97835.66;7376754;19;19952;-78
2023/05/22 12:57:12;;;;;;;;;;;;;;;27.40;41.91;97832.56;7379067;19;19925;-80